Time;durP1;ratioP1;P1;durP2;ratioP2;P2;SDS_P1;SDS_P2;PMS_P1;PMS_P2;Temp;Humidity;BMP_temperature;BMP_pressure;BME280_temperature;BME280_humidity;BME280_pressure;Samples;Min_cycle;Max_cycle;Signal;HPM_P1;HPM_P2
2022/12/26 00:00:45;;;;;;;9.63;7.50;;;;;;;;;;4964576;28;20479;-73
2022/12/26 00:03:37;;;;;;;8.93;6.90;;;;;;;;;;4968823;28;20462;-73
2022/12/26 00:06:30;;;;;;;10.20;8.60;;;;;;;;;;4971894;28;20474;-73
2022/12/26 00:09:21;;;;;;;10.77;8.23;;;;;;;;;;4973186;28;20529;-73
2022/12/26 00:12:12;;;;;;;11.00;8.30;;;;;;;;;;4971573;28;20447;-73
2022/12/26 00:15:03;;;;;;;9.67;7.53;;;;;;;;;;4964418;28;20818;-73
2022/12/26 00:17:53;;;;;;;11.43;8.87;;;;;;;;;;4969571;28;20486;-73
2022/12/26 00:20:48;;;;;;;12.00;8.00;;;;;;;;;;4972554;28;20474;-73
2022/12/26 00:23:37;;;;;;;11.83;8.77;;;;;;;;;;4965374;28;20450;-73
2022/12/26 00:26:29;;;;;;;12.03;8.87;;;;;;;;;;4973680;28;20465;-73
2022/12/26 00:29:19;;;;;;;10.37;8.67;;;;;;;;;;4967262;28;20529;-73
2022/12/26 00:32:12;;;;;;;17.87;9.37;;;;;;;;;;4972663;28;20450;-73
2022/12/26 00:35:02;;;;;;;14.97;10.00;;;;;;;;;;4958592;28;20979;-73
2022/12/26 00:37:54;;;;;;;13.47;9.40;;;;;;;;;;4963957;28;20843;-73
2022/12/26 00:40:47;;;;;;;12.90;9.47;;;;;;;;;;4970430;28;20994;-73
2022/12/26 00:43:35;;;;;;;12.60;9.53;;;;;;;;;;4969700;28;20845;-73
2022/12/26 00:46:28;;;;;;;12.67;8.70;;;;;;;;;;4970587;28;20519;-73
2022/12/26 00:49:16;;;;;;;13.40;8.30;;;;;;;;;;4970609;28;20467;-73
2022/12/26 00:52:06;;;;;;;12.13;8.30;;;;;;;;;;4970048;28;20458;-73
2022/12/26 00:54:57;;;;;;;13.63;8.17;;;;;;;;;;4971215;28;20541;-73
2022/12/26 00:57:48;;;;;;;9.53;7.47;;;;;;;;;;4968769;28;20469;-73
2022/12/26 01:00:37;;;;;;;11.00;7.67;;;;;;;;;;4970553;28;20482;-73
2022/12/26 01:03:30;;;;;;;12.50;7.90;;;;;;;;;;4969127;28;20443;-73
2022/12/26 01:06:20;;;;;;;11.60;7.43;;;;;;;;;;4963045;28;20517;-73
2022/12/26 01:09:14;;;;;;;13.13;7.97;;;;;;;;;;4970454;28;20474;-73
2022/12/26 01:12:05;;;;;;;12.50;7.50;;;;;;;;;;4960428;28;20447;-73
2022/12/26 01:14:58;;;;;;;12.20;7.17;;;;;;;;;;4965674;28;20568;-73
2022/12/26 01:17:47;;;;;;;19.47;8.00;;;;;;;;;;4972508;28;20478;-73
2022/12/26 01:20:38;;;;;;;10.30;6.77;;;;;;;;;;4973422;28;20551;-72
2022/12/26 01:23:34;;;;;;;13.40;7.83;;;;;;;;;;4968532;28;20462;-73
2022/12/26 01:26:26;;;;;;;14.73;8.10;;;;;;;;;;4971855;28;20455;-73
2022/12/26 01:29:16;;;;;;;12.73;7.47;;;;;;;;;;4968865;28;20467;-73
2022/12/26 01:32:04;;;;;;;9.00;5.93;;;;;;;;;;4955315;28;20556;-74
2022/12/26 01:34:54;;;;;;;9.97;6.20;;;;;;;;;;4967418;28;20455;-74
2022/12/26 01:37:45;;;;;;;8.20;6.17;;;;;;;;;;4961087;28;20495;-73
2022/12/26 01:40:43;;;;;;;9.47;5.83;;;;;;;;;;4962250;28;21003;-73
2022/12/26 01:43:54;;;;;;;9.33;6.27;;;;;;;;;;4972035;28;20447;-73
2022/12/26 01:46:45;;;;;;;8.53;5.43;;;;;;;;;;4956450;28;20448;-73
2022/12/26 01:49:41;;;;;;;8.43;5.90;;;;;;;;;;4968352;28;21148;-73
2022/12/26 01:52:34;;;;;;;10.33;6.80;;;;;;;;;;4961043;28;20843;-73
2022/12/26 01:55:25;;;;;;;10.50;6.70;;;;;;;;;;4970362;28;20970;-73
2022/12/26 01:58:20;;;;;;;8.70;6.63;;;;;;;;;;4968110;28;20471;-73
2022/12/26 02:01:13;;;;;;;14.80;6.20;;;;;;;;;;4968854;28;20471;-73
2022/12/26 02:07:13;;;;;;;12.23;6.57;;;;;;;;;;4969906;28;20469;-73
2022/12/26 02:10:03;;;;;;;11.30;7.20;;;;;;;;;;4969182;28;20466;-73
2022/12/26 02:12:51;;;;;;;10.87;5.83;;;;;;;;;;4966030;28;20478;-73
2022/12/26 02:15:41;;;;;;;11.17;6.03;;;;;;;;;;4961095;28;20458;-73
2022/12/26 02:18:40;;;;;;;12.17;6.40;;;;;;;;;;4970252;28;20476;-73
2022/12/26 02:21:47;;;;;;;12.10;7.37;;;;;;;;;;4965484;28;20486;-73
2022/12/26 02:24:50;;;;;;;10.70;7.10;;;;;;;;;;4969364;28;20447;-73
2022/12/26 02:27:47;;;;;;;11.77;7.30;;;;;;;;;;4964551;28;20482;-73
2022/12/26 02:30:42;;;;;;;12.60;7.53;;;;;;;;;;4959304;28;20466;-73
2022/12/26 02:33:46;;;;;;;15.50;7.87;;;;;;;;;;4967722;28;20439;-73
2022/12/26 02:36:45;;;;;;;12.93;7.73;;;;;;;;;;4970342;28;20474;-73
2022/12/26 02:39:44;;;;;;;12.53;7.87;;;;;;;;;;4966406;28;20458;-73
2022/12/26 02:42:40;;;;;;;13.77;8.43;;;;;;;;;;4966144;28;20565;-73
2022/12/26 02:48:47;;;;;;;13.13;8.47;;;;;;;;;;4972037;28;21037;-73
2022/12/26 03:14:21;;;;;;;11.27;8.90;;;;;;;;;;4975138;28;20439;-73
2022/12/26 03:17:19;;;;;;;12.47;8.30;;;;;;;;;;4971443;28;20514;-73
2022/12/26 03:20:14;;;;;;;11.83;8.27;;;;;;;;;;4971617;28;20482;-73
2022/12/26 03:23:06;;;;;;;12.67;8.40;;;;;;;;;;4974827;28;20458;-73
2022/12/26 03:32:07;;;;;;;12.40;7.87;;;;;;;;;;4969640;28;20455;-73
2022/12/26 03:34:56;;;;;;;12.83;7.93;;;;;;;;;;4972715;28;21235;-73
2022/12/26 03:37:50;;;;;;;12.30;8.50;;;;;;;;;;4973660;28;20474;-73
2022/12/26 04:19:30;;;;;;;13.10;9.20;;;;;;;;;;4956885;28;20859;-73
2022/12/26 04:44:27;;;;;;;15.00;10.03;;;;;;;;;;4971662;28;20447;-73
2022/12/26 04:47:17;;;;;;;13.90;9.40;;;;;;;;;;4985703;28;20478;-73
2022/12/26 04:50:11;;;;;;;15.03;9.37;;;;;;;;;;4984789;28;20479;-73
2022/12/26 04:53:01;;;;;;;15.10;10.00;;;;;;;;;;4980017;28;20461;-73
2022/12/26 04:55:57;;;;;;;14.60;10.00;;;;;;;;;;4983452;28;20470;-73
2022/12/26 04:58:48;;;;;;;13.77;9.87;;;;;;;;;;4982864;28;20560;-73
2022/12/26 05:11:07;;;;;;;12.93;8.37;;;;;;;;;;4958803;28;20463;-73
2022/12/26 05:13:58;;;;;;;13.03;9.50;;;;;;;;;;4966533;28;20461;-73
2022/12/26 05:29:29;;;;;;;13.10;9.87;;;;;;;;;;4959954;28;20848;-73
2022/12/26 05:35:26;;;;;;;12.40;9.43;;;;;;;;;;4971430;28;20458;-73
2022/12/26 05:38:16;;;;;;;13.30;9.43;;;;;;;;;;4950779;28;20474;-73
2022/12/26 05:41:06;;;;;;;13.80;9.50;;;;;;;;;;4969781;28;20963;-73
2022/12/26 05:43:57;;;;;;;14.97;10.20;;;;;;;;;;4964980;28;20976;-73
2022/12/26 05:46:48;;;;;;;14.60;9.90;;;;;;;;;;4966827;28;20468;-73
2022/12/26 05:49:37;;;;;;;13.50;9.80;;;;;;;;;;4969155;28;20994;-73
2022/12/26 05:52:28;;;;;;;12.77;8.73;;;;;;;;;;4970678;28;20839;-73
2022/12/26 05:55:17;;;;;;;12.70;10.00;;;;;;;;;;4970391;28;20839;-73
2022/12/26 05:58:10;;;;;;;13.77;9.17;;;;;;;;;;4968489;28;20467;-73
2022/12/26 06:01:05;;;;;;;14.67;10.00;;;;;;;;;;4962874;28;20568;-73
2022/12/26 06:04:00;;;;;;;14.13;10.47;;;;;;;;;;4963855;28;20503;-73
2022/12/26 06:06:49;;;;;;;17.67;11.13;;;;;;;;;;4967975;28;20968;-73
2022/12/26 06:09:38;;;;;;;15.20;10.90;;;;;;;;;;4969019;28;21005;-73
2022/12/26 06:12:31;;;;;;;19.57;11.37;;;;;;;;;;4969912;28;20868;-73
2022/12/26 06:15:20;;;;;;;15.50;11.13;;;;;;;;;;4970103;28;20459;-73
2022/12/26 06:18:11;;;;;;;17.37;12.00;;;;;;;;;;4967303;28;20487;-73
2022/12/26 06:21:05;;;;;;;21.37;13.77;;;;;;;;;;4964460;28;20990;-73
2022/12/26 06:23:55;;;;;;;20.03;12.20;;;;;;;;;;4969220;28;20852;-73
2022/12/26 06:26:45;;;;;;;19.50;12.60;;;;;;;;;;4968656;28;20539;-73
2022/12/26 06:29:38;;;;;;;21.30;13.13;;;;;;;;;;4969597;28;21121;-73
2022/12/26 06:32:27;;;;;;;17.93;11.77;;;;;;;;;;4959552;28;20459;-73
2022/12/26 06:35:16;;;;;;;21.63;14.23;;;;;;;;;;4970987;28;20862;-73
2022/12/26 06:38:07;;;;;;;20.07;13.33;;;;;;;;;;4966704;28;20471;-73
2022/12/26 06:41:01;;;;;;;22.10;14.00;;;;;;;;;;4961406;28;20837;-73
2022/12/26 06:43:52;;;;;;;22.53;13.50;;;;;;;;;;4970243;28;20978;-73
2022/12/26 06:46:40;;;;;;;23.23;14.50;;;;;;;;;;4965676;28;20835;-73
2022/12/26 06:49:31;;;;;;;22.20;14.60;;;;;;;;;;4962993;28;20458;-73
2022/12/26 06:52:20;;;;;;;24.80;14.70;;;;;;;;;;4964036;28;20465;-73
2022/12/26 06:55:11;;;;;;;21.53;14.50;;;;;;;;;;4969740;28;20459;-73
2022/12/26 06:58:02;;;;;;;21.20;14.60;;;;;;;;;;4967621;28;21002;-73
2022/12/26 07:00:51;;;;;;;23.20;14.77;;;;;;;;;;4962586;28;20463;-73
2022/12/26 07:03:39;;;;;;;19.00;13.10;;;;;;;;;;4967161;28;20483;-73
2022/12/26 07:06:38;;;;;;;18.90;13.00;;;;;;;;;;4966653;28;21000;-73
2022/12/26 07:09:27;;;;;;;15.97;11.80;;;;;;;;;;4967630;28;21017;-73
2022/12/26 07:12:23;;;;;;;16.87;11.40;;;;;;;;;;4962903;28;20454;-73
2022/12/26 07:15:15;;;;;;;18.80;11.80;;;;;;;;;;4968756;28;20834;-73
2022/12/26 07:18:06;;;;;;;14.87;11.00;;;;;;;;;;4965398;28;20470;-73
2022/12/26 07:21:03;;;;;;;18.10;12.80;;;;;;;;;;4969163;28;20486;-73
2022/12/26 07:23:55;;;;;;;16.47;11.43;;;;;;;;;;4965920;28;20568;-73
2022/12/26 07:26:46;;;;;;;16.40;11.63;;;;;;;;;;4961195;28;20533;-73
2022/12/26 07:29:36;;;;;;;17.20;12.17;;;;;;;;;;4954197;28;20486;-73
2022/12/26 07:32:27;;;;;;;15.57;11.67;;;;;;;;;;4971246;28;20486;-73
2022/12/26 07:35:16;;;;;;;17.97;13.43;;;;;;;;;;4968630;28;20455;-73
2022/12/26 07:38:06;;;;;;;15.90;12.77;;;;;;;;;;4969411;28;20466;-73
2022/12/26 07:41:56;;;;;;;16.43;12.47;;;;;;;;;;4970060;28;20443;-73
2022/12/26 07:44:11;;;;;;;18.57;13.30;;;;;;;;;;4964250;28;20486;-73
2022/12/26 07:47:04;;;;;;;17.93;12.63;;;;;;;;;;4970794;28;20486;-73
2022/12/26 07:49:52;;;;;;;19.10;12.73;;;;;;;;;;4964793;28;20476;-73
2022/12/26 07:52:44;;;;;;;17.40;13.47;;;;;;;;;;4968384;28;20455;-73
2022/12/26 07:55:36;;;;;;;18.73;13.03;;;;;;;;;;4969819;28;20856;-73
2022/12/26 07:58:25;;;;;;;18.27;13.63;;;;;;;;;;4963018;28;20475;-73
2022/12/26 08:01:15;;;;;;;18.27;13.70;;;;;;;;;;4968425;28;20539;-73
2022/12/26 08:04:07;;;;;;;15.20;12.43;;;;;;;;;;4970629;28;20477;-73
2022/12/26 08:07:05;;;;;;;20.97;14.40;;;;;;;;;;4969976;28;20846;-73
2022/12/26 08:09:56;;;;;;;18.43;13.93;;;;;;;;;;4967717;28;21022;-73
2022/12/26 08:12:45;;;;;;;20.90;15.03;;;;;;;;;;4972228;28;20454;-73
2022/12/26 08:15:34;;;;;;;17.47;13.53;;;;;;;;;;4957567;28;20466;-73
2022/12/26 08:18:31;;;;;;;16.47;13.10;;;;;;;;;;4969968;28;20470;-74
2022/12/26 08:21:27;;;;;;;18.27;14.40;;;;;;;;;;4965844;28;20462;-74
2022/12/26 08:24:25;;;;;;;18.87;14.23;;;;;;;;;;4962129;28;20470;-74
2022/12/26 08:27:18;;;;;;;19.30;14.70;;;;;;;;;;4967239;28;20486;-74
2022/12/26 08:30:08;;;;;;;23.23;16.50;;;;;;;;;;4965811;28;20494;-74
2022/12/26 08:33:02;;;;;;;19.40;15.20;;;;;;;;;;4969885;28;20443;-74
2022/12/26 08:35:54;;;;;;;22.57;15.90;;;;;;;;;;4970340;28;20459;-74
2022/12/26 08:38:44;;;;;;;21.57;15.17;;;;;;;;;;4971288;28;20478;-74
2022/12/26 08:41:33;;;;;;;20.70;15.80;;;;;;;;;;4968209;28;20963;-74
2022/12/26 08:44:23;;;;;;;22.33;16.87;;;;;;;;;;4971677;28;20478;-74
2022/12/26 08:47:25;;;;;;;20.30;15.00;;;;;;;;;;4966450;28;21008;-74
2022/12/26 08:50:14;;;;;;;20.30;15.50;;;;;;;;;;4971554;28;20474;-74
2022/12/26 08:53:03;;;;;;;23.37;17.37;;;;;;;;;;4962257;28;20714;-74
2022/12/26 08:55:56;;;;;;;23.00;16.77;;;;;;;;;;4971390;28;20459;-73
2022/12/26 08:58:47;;;;;;;23.23;16.67;;;;;;;;;;4963814;28;20487;-73
2022/12/26 09:01:47;;;;;;;21.30;15.97;;;;;;;;;;4958606;28;20473;-72
2022/12/26 09:04:36;;;;;;;25.77;18.00;;;;;;;;;;4970632;28;20931;-72
2022/12/26 09:07:26;;;;;;;21.40;16.67;;;;;;;;;;4965105;28;20491;-72
2022/12/26 09:10:18;;;;;;;22.27;17.10;;;;;;;;;;4964668;28;20486;-73
2022/12/26 09:13:08;;;;;;;22.43;16.57;;;;;;;;;;4968284;28;20451;-72
2022/12/26 09:16:10;;;;;;;20.93;16.23;;;;;;;;;;4971934;28;20459;-72
2022/12/26 09:25:24;;;;;;;20.90;15.93;;;;;;;;;;4967801;28;20468;-72
2022/12/26 09:28:14;;;;;;;23.37;16.37;;;;;;;;;;4958958;28;20478;-73
2022/12/26 09:31:03;;;;;;;22.10;16.60;;;;;;;;;;4965640;28;20467;-72
2022/12/26 09:34:01;;;;;;;23.00;16.30;;;;;;;;;;4967312;28;20451;-72
2022/12/26 09:36:55;;;;;;;21.90;16.90;;;;;;;;;;4974150;28;20449;-72
2022/12/26 09:39:46;;;;;;;20.23;15.23;;;;;;;;;;4972203;28;20467;-73
2022/12/26 09:42:39;;;;;;;22.77;16.13;;;;;;;;;;4969869;28;20447;-72
2022/12/26 09:45:37;;;;;;;23.07;16.80;;;;;;;;;;4980525;28;20524;-72
2022/12/26 09:48:28;;;;;;;20.07;13.87;;;;;;;;;;4974946;28;20475;-72
2022/12/26 09:51:20;;;;;;;19.70;15.07;;;;;;;;;;4969436;28;20465;-73
2022/12/26 09:54:14;;;;;;;19.23;14.77;;;;;;;;;;4964286;28;20445;-72
2022/12/26 09:57:04;;;;;;;19.70;15.30;;;;;;;;;;4965256;28;20479;-73
2022/12/26 10:00:12;;;;;;;21.33;14.17;;;;;;;;;;4966451;28;20510;-72
2022/12/26 10:03:06;;;;;;;19.87;14.30;;;;;;;;;;4965400;28;20470;-73
2022/12/26 10:06:02;;;;;;;17.90;13.87;;;;;;;;;;4966245;28;20599;-72
2022/12/26 10:09:02;;;;;;;19.13;14.40;;;;;;;;;;4970309;28;20851;-72
2022/12/26 10:12:02;;;;;;;17.70;13.30;;;;;;;;;;4968867;28;20546;-72
2022/12/26 10:14:53;;;;;;;18.13;13.70;;;;;;;;;;4971957;28;20450;-72
2022/12/26 10:17:49;;;;;;;18.20;13.30;;;;;;;;;;4967264;28;20482;-73
2022/12/26 10:20:45;;;;;;;17.27;13.50;;;;;;;;;;4969005;28;20486;-73
2022/12/26 10:23:38;;;;;;;19.67;14.00;;;;;;;;;;4963196;28;20446;-72
2022/12/26 10:26:34;;;;;;;17.00;12.60;;;;;;;;;;4969150;28;20458;-72
2022/12/26 10:29:28;;;;;;;17.00;13.20;;;;;;;;;;4965727;28;20491;-73
2022/12/26 10:32:20;;;;;;;16.37;13.07;;;;;;;;;;4964683;28;20450;-72
2022/12/26 10:35:23;;;;;;;17.67;13.27;;;;;;;;;;4962544;28;20450;-72
2022/12/26 10:38:25;;;;;;;16.57;12.47;;;;;;;;;;4964862;28;20480;-73
2022/12/26 10:41:21;;;;;;;15.20;11.77;;;;;;;;;;4964485;28;20481;-74
2022/12/26 10:44:12;;;;;;;16.03;12.80;;;;;;;;;;4967790;28;20474;-71
2022/12/26 10:47:11;;;;;;;16.27;13.17;;;;;;;;;;4967949;28;20486;-72
2022/12/26 10:50:00;;;;;;;16.90;12.93;;;;;;;;;;4962169;28;20481;-72
2022/12/26 10:52:55;;;;;;;19.40;13.63;;;;;;;;;;4970520;28;20458;-72
2022/12/26 10:55:50;;;;;;;14.70;10.87;;;;;;;;;;4972516;28;20451;-72
2022/12/26 10:58:40;;;;;;;14.23;11.80;;;;;;;;;;4959773;28;20474;-71
2022/12/26 11:01:37;;;;;;;18.17;13.80;;;;;;;;;;4965918;28;20447;-72
2022/12/26 11:04:26;;;;;;;15.90;11.57;;;;;;;;;;4966268;28;20466;-72
2022/12/26 11:07:45;;;;;;;15.17;12.13;;;;;;;;;;4967982;28;20857;-72
2022/12/26 11:10:36;;;;;;;16.20;12.37;;;;;;;;;;4970684;28;21032;-73
2022/12/26 11:13:35;;;;;;;16.27;11.70;;;;;;;;;;4990116;28;20449;-72
2022/12/26 11:16:26;;;;;;;14.70;11.70;;;;;;;;;;4979742;28;20453;-72
2022/12/26 11:19:26;;;;;;;13.97;10.67;;;;;;;;;;4987821;28;21123;-72
2022/12/26 11:22:21;;;;;;;14.70;12.10;;;;;;;;;;4991601;28;20443;-72
2022/12/26 11:25:20;;;;;;;17.27;11.67;;;;;;;;;;4970537;28;20483;-72
2022/12/26 11:28:26;;;;;;;16.30;12.43;;;;;;;;;;4955899;28;20479;-73
2022/12/26 11:31:30;;;;;;;14.73;11.47;;;;;;;;;;4965662;28;20451;-73
2022/12/26 11:34:35;;;;;;;13.40;10.57;;;;;;;;;;4962651;28;20827;-73
2022/12/26 11:37:28;;;;;;;13.43;11.00;;;;;;;;;;4966903;28;20477;-73
2022/12/26 11:40:18;;;;;;;17.03;12.17;;;;;;;;;;4972147;28;20866;-73
2022/12/26 11:43:16;;;;;;;14.43;10.70;;;;;;;;;;4973069;28;20471;-73
2022/12/26 11:46:08;;;;;;;15.10;11.20;;;;;;;;;;4972177;28;20474;-72
2022/12/26 11:48:58;;;;;;;13.70;11.03;;;;;;;;;;4971749;28;20482;-72
2022/12/26 11:51:48;;;;;;;14.27;11.30;;;;;;;;;;4972150;28;20462;-72
2022/12/26 11:54:53;;;;;;;11.10;9.70;;;;;;;;;;4970857;28;21018;-73
2022/12/26 11:57:55;;;;;;;12.70;10.07;;;;;;;;;;4970552;28;20479;-72
2022/12/26 12:01:04;;;;;;;15.37;10.40;;;;;;;;;;4964614;28;20998;-73
2022/12/26 12:04:00;;;;;;;13.20;10.00;;;;;;;;;;4965770;28;20455;-73
2022/12/26 12:07:00;;;;;;;12.60;10.10;;;;;;;;;;4969413;28;20553;-72
2022/12/26 12:09:53;;;;;;;11.73;9.77;;;;;;;;;;4972483;28;20475;-73
2022/12/26 12:12:50;;;;;;;12.90;9.90;;;;;;;;;;4961568;28;20444;-74
2022/12/26 12:15:46;;;;;;;11.73;9.90;;;;;;;;;;4959654;28;20454;-73
2022/12/26 12:18:58;;;;;;;15.10;10.37;;;;;;;;;;4968983;28;20482;-73
2022/12/26 12:21:54;;;;;;;12.67;10.87;;;;;;;;;;4968971;28;20455;-73
2022/12/26 12:24:53;;;;;;;13.43;10.40;;;;;;;;;;4985437;28;20487;-73
2022/12/26 12:27:47;;;;;;;13.17;9.60;;;;;;;;;;4987905;28;20491;-72
2022/12/26 12:30:41;;;;;;;11.90;10.13;;;;;;;;;;4990965;28;20455;-72
2022/12/26 12:33:38;;;;;;;11.23;8.90;;;;;;;;;;4982815;28;20446;-72
2022/12/26 12:36:31;;;;;;;13.10;9.70;;;;;;;;;;4989158;28;20465;-73
2022/12/26 12:39:26;;;;;;;10.00;9.00;;;;;;;;;;4962392;28;20866;-72
2022/12/26 12:42:23;;;;;;;11.10;9.00;;;;;;;;;;4964993;28;20599;-72
2022/12/26 12:45:26;;;;;;;11.07;8.60;;;;;;;;;;4958636;28;20471;-74
2022/12/26 12:48:34;;;;;;;14.97;10.50;;;;;;;;;;4970708;28;20533;-74
2022/12/26 12:51:28;;;;;;;12.07;9.60;;;;;;;;;;4971608;28;20826;-74
2022/12/26 12:54:27;;;;;;;10.27;9.20;;;;;;;;;;4973596;28;20461;-74
2022/12/26 12:57:25;;;;;;;9.60;8.60;;;;;;;;;;4961617;28;20483;-74
2022/12/26 13:00:18;;;;;;;9.70;8.70;;;;;;;;;;4965655;28;20485;-74
2022/12/26 13:03:10;;;;;;;10.47;8.50;;;;;;;;;;4970937;28;20443;-74
2022/12/26 13:06:05;;;;;;;8.47;7.57;;;;;;;;;;4968682;28;20997;-74
2022/12/26 13:09:00;;;;;;;8.63;7.50;;;;;;;;;;4966318;28;20486;-74
2022/12/26 13:11:55;;;;;;;9.20;7.20;;;;;;;;;;4969069;28;20462;-74
2022/12/26 13:14:49;;;;;;;9.80;6.80;;;;;;;;;;4965315;28;20450;-74
2022/12/26 13:17:46;;;;;;;7.27;6.57;;;;;;;;;;4962138;28;20475;-74
2022/12/26 13:20:41;;;;;;;7.37;5.80;;;;;;;;;;4972985;28;20458;-74
2022/12/26 13:26:43;;;;;;;7.53;5.20;;;;;;;;;;4965560;28;20475;-74
2022/12/26 13:29:45;;;;;;;4.43;4.03;;;;;;;;;;4963284;28;20857;-74
2022/12/26 13:32:34;;;;;;;3.70;3.40;;;;;;;;;;4971074;28;20449;-74
2022/12/26 13:35:59;;;;;;;5.10;2.63;;;;;;;;;;4968582;28;20458;-74
2022/12/26 13:39:08;;;;;;;3.53;2.43;;;;;;;;;;4970444;28;20474;-74
2022/12/26 13:45:27;;;;;;;4.60;1.80;;;;;;;;;;4961939;28;20444;-74
2022/12/26 13:48:38;;;;;;;1.93;1.17;;;;;;;;;;4965784;28;21026;-74
2022/12/26 13:51:54;;;;;;;3.33;1.30;;;;;;;;;;4965537;28;20462;-74
2022/12/26 13:55:09;;;;;;;2.50;1.00;;;;;;;;;;4982623;28;20511;-73
2022/12/26 13:58:14;;;;;;;1.03;0.97;;;;;;;;;;4975875;28;20485;-74
2022/12/26 14:01:17;;;;;;;3.40;1.20;;;;;;;;;;4978763;28;20462;-74
2022/12/26 14:04:21;;;;;;;3.03;0.83;;;;;;;;;;4961686;28;20477;-73
2022/12/26 14:07:22;;;;;;;1.03;0.90;;;;;;;;;;4966939;28;20862;-74
2022/12/26 14:10:19;;;;;;;1.83;1.00;;;;;;;;;;4964719;28;20501;-74
2022/12/26 14:13:23;;;;;;;4.27;1.50;;;;;;;;;;4968005;28;20938;-74
2022/12/26 14:16:25;;;;;;;2.20;1.00;;;;;;;;;;4964623;28;20465;-73
2022/12/26 14:19:22;;;;;;;4.50;1.40;;;;;;;;;;4960342;28;20471;-74
2022/12/26 14:22:18;;;;;;;3.13;1.10;;;;;;;;;;4959421;28;20444;-73
2022/12/26 14:25:28;;;;;;;3.40;1.10;;;;;;;;;;4959490;28;20451;-73
2022/12/26 14:28:23;;;;;;;2.47;1.13;;;;;;;;;;4970778;28;20501;-73
2022/12/26 14:31:21;;;;;;;2.30;0.87;;;;;;;;;;4968009;28;20818;-73
2022/12/26 14:34:33;;;;;;;2.47;1.40;;;;;;;;;;4972185;28;20825;-73
2022/12/26 14:37:26;;;;;;;4.27;1.50;;;;;;;;;;4961790;28;20469;-74
2022/12/26 14:40:24;;;;;;;3.43;1.67;;;;;;;;;;4963806;28;20470;-73
2022/12/26 14:43:32;;;;;;;4.03;2.00;;;;;;;;;;4973619;28;20453;-73
2022/12/26 14:46:47;;;;;;;4.47;1.40;;;;;;;;;;4974213;28;20513;-73
2022/12/26 14:49:40;;;;;;;3.30;1.63;;;;;;;;;;4934182;28;20974;-73
2022/12/26 14:52:51;;;;;;;5.17;1.43;;;;;;;;;;4970212;28;20957;-73
2022/12/26 14:55:52;;;;;;;3.47;1.37;;;;;;;;;;4966772;28;20462;-73
2022/12/26 14:58:42;;;;;;;7.00;1.40;;;;;;;;;;4968600;28;20470;-73
2022/12/26 15:01:46;;;;;;;6.13;1.63;;;;;;;;;;4967006;28;20446;-73
2022/12/26 15:04:53;;;;;;;3.20;1.43;;;;;;;;;;4964024;28;20801;-73
2022/12/26 15:08:08;;;;;;;4.67;1.90;;;;;;;;;;4973893;28;21415;-73
2022/12/26 15:11:21;;;;;;;3.90;1.67;;;;;;;;;;4974691;28;20463;-73
2022/12/26 15:14:26;;;;;;;6.47;1.50;;;;;;;;;;4974342;28;20920;-73
2022/12/26 15:17:18;;;;;;;7.43;1.80;;;;;;;;;;4974869;28;21029;-73
2022/12/26 15:20:25;;;;;;;6.60;1.50;;;;;;;;;;4968305;28;20474;-74
2022/12/26 15:23:36;;;;;;;5.13;1.20;;;;;;;;;;4958846;28;20458;-73
2022/12/26 15:26:37;;;;;;;3.10;1.50;;;;;;;;;;4975422;28;20478;-73
2022/12/26 15:29:46;;;;;;;4.37;1.97;;;;;;;;;;4959489;28;20481;-73
2022/12/26 15:32:43;;;;;;;4.43;1.37;;;;;;;;;;4968180;28;20458;-73
2022/12/26 15:35:33;;;;;;;5.23;1.67;;;;;;;;;;4972698;28;20465;-73
2022/12/26 15:38:29;;;;;;;4.97;1.53;;;;;;;;;;4972503;28;20555;-73
2022/12/26 15:41:27;;;;;;;5.67;1.57;;;;;;;;;;4968766;28;20453;-73
2022/12/26 15:44:30;;;;;;;11.00;2.37;;;;;;;;;;4958386;28;20542;-73
2022/12/26 15:47:22;;;;;;;5.80;1.50;;;;;;;;;;4973372;28;21084;-73
2022/12/26 15:50:19;;;;;;;7.10;1.80;;;;;;;;;;4971966;28;20489;-73
2022/12/26 15:53:17;;;;;;;7.03;2.07;;;;;;;;;;4969083;28;20876;-73
2022/12/26 15:56:20;;;;;;;4.73;2.23;;;;;;;;;;4974649;28;20502;-73
2022/12/26 15:59:31;;;;;;;8.67;2.13;;;;;;;;;;4970137;28;20994;-73
2022/12/26 16:02:34;;;;;;;6.37;2.00;;;;;;;;;;4982880;28;20458;-74
2022/12/26 16:05:32;;;;;;;4.83;2.20;;;;;;;;;;4984343;28;20446;-74
2022/12/26 16:08:38;;;;;;;7.80;2.60;;;;;;;;;;4989978;28;20467;-74
2022/12/26 16:11:32;;;;;;;8.40;2.70;;;;;;;;;;4990265;28;20457;-73
2022/12/26 16:14:30;;;;;;;11.63;2.20;;;;;;;;;;4979338;28;20526;-74
2022/12/26 16:17:22;;;;;;;7.33;2.10;;;;;;;;;;4983076;28;20471;-73
2022/12/26 16:22:42;;;;;;;5.57;2.40;;;;;;;;;;4979359;28;20502;-74
2022/12/26 16:23:31;;;;;;;7.17;2.23;;;;;;;;;;4986532;28;20836;-73
2022/12/26 16:26:25;;;;;;;8.30;2.60;;;;;;;;;;4981672;28;20549;-74
2022/12/26 16:29:22;;;;;;;5.90;1.87;;;;;;;;;;4981256;28;20513;-74
2022/12/26 16:32:16;;;;;;;9.10;2.87;;;;;;;;;;4988622;28;20451;-73
2022/12/26 16:35:07;;;;;;;4.70;2.13;;;;;;;;;;4986836;28;20447;-74
2022/12/26 16:37:58;;;;;;;9.87;3.00;;;;;;;;;;4989324;28;20471;-73
2022/12/26 16:40:50;;;;;;;8.13;2.37;;;;;;;;;;4964384;28;20439;-73
2022/12/26 16:43:44;;;;;;;7.30;2.23;;;;;;;;;;4973245;28;20465;-73
2022/12/26 16:46:39;;;;;;;9.17;2.23;;;;;;;;;;4969709;28;20447;-74
2022/12/26 16:49:29;;;;;;;6.90;2.60;;;;;;;;;;4964725;28;20474;-73
2022/12/26 16:52:37;;;;;;;6.63;2.60;;;;;;;;;;4972758;28;20462;-73
2022/12/26 16:55:42;;;;;;;8.30;2.47;;;;;;;;;;4973111;28;20579;-73
2022/12/26 16:58:37;;;;;;;7.17;2.60;;;;;;;;;;4966369;28;20470;-73
2022/12/26 17:01:29;;;;;;;8.10;2.40;;;;;;;;;;4963204;28;20455;-73
2022/12/26 17:04:21;;;;;;;6.50;2.10;;;;;;;;;;4962991;28;20507;-73
2022/12/26 17:07:18;;;;;;;3.90;2.00;;;;;;;;;;4958100;28;21210;-73
2022/12/26 17:10:07;;;;;;;8.93;2.50;;;;;;;;;;4956796;28;20489;-73
2022/12/26 17:13:04;;;;;;;8.73;2.70;;;;;;;;;;4972751;28;20458;-73
2022/12/26 17:15:57;;;;;;;4.60;2.07;;;;;;;;;;4973322;28;20975;-73
2022/12/26 17:18:56;;;;;;;7.33;2.40;;;;;;;;;;4963865;28;20477;-73
2022/12/26 17:22:02;;;;;;;6.67;2.00;;;;;;;;;;4971147;28;20446;-73
2022/12/26 17:24:52;;;;;;;10.03;3.13;;;;;;;;;;4971195;28;20470;-74
2022/12/26 17:27:44;;;;;;;9.33;2.20;;;;;;;;;;4977203;28;20496;-73
2022/12/26 17:30:36;;;;;;;5.67;2.33;;;;;;;;;;4985859;28;20459;-74
2022/12/26 17:33:27;;;;;;;12.10;2.53;;;;;;;;;;4978711;28;21066;-73
2022/12/26 17:36:18;;;;;;;4.27;2.20;;;;;;;;;;4983605;28;20458;-74
2022/12/26 17:39:27;;;;;;;4.23;2.27;;;;;;;;;;4968596;28;20899;-73
2022/12/26 17:42:19;;;;;;;6.37;2.20;;;;;;;;;;4963906;28;20462;-73
2022/12/26 17:45:14;;;;;;;3.70;2.07;;;;;;;;;;4972034;28;20446;-74
2022/12/26 17:48:05;;;;;;;6.37;1.97;;;;;;;;;;4962558;28;20467;-73
2022/12/26 17:50:57;;;;;;;4.27;1.77;;;;;;;;;;4965908;28;20482;-73
2022/12/26 17:53:51;;;;;;;7.70;2.57;;;;;;;;;;4969161;28;20438;-73
2022/12/26 17:56:48;;;;;;;12.00;2.77;;;;;;;;;;4982677;28;20459;-73
2022/12/26 17:59:39;;;;;;;3.40;1.90;;;;;;;;;;4969403;28;20854;-73
2022/12/26 18:02:27;;;;;;;8.37;2.20;;;;;;;;;;4977195;28;20443;-73
2022/12/26 18:05:28;;;;;;;8.70;2.90;;;;;;;;;;4992079;28;20489;-74
2022/12/26 18:08:25;;;;;;;6.47;2.17;;;;;;;;;;4978196;28;20466;-73
2022/12/26 18:11:16;;;;;;;4.87;2.70;;;;;;;;;;4980645;28;20454;-73
2022/12/26 18:14:09;;;;;;;9.90;2.20;;;;;;;;;;4975676;28;20550;-73
2022/12/26 18:17:00;;;;;;;7.10;2.23;;;;;;;;;;4967300;28;20447;-73
2022/12/26 18:19:56;;;;;;;7.13;2.50;;;;;;;;;;4969087;28;20486;-74
2022/12/26 18:22:50;;;;;;;5.87;2.53;;;;;;;;;;4972533;28;20450;-73
2022/12/26 18:25:38;;;;;;;8.90;2.63;;;;;;;;;;4969733;28;20482;-73
2022/12/26 18:28:28;;;;;;;8.33;2.23;;;;;;;;;;4971341;28;20485;-73
2022/12/26 18:31:20;;;;;;;8.00;2.70;;;;;;;;;;4965522;28;20477;-73
2022/12/26 18:34:08;;;;;;;8.77;2.57;;;;;;;;;;4963908;28;20457;-73
2022/12/26 18:36:57;;;;;;;3.90;2.27;;;;;;;;;;4968590;28;20450;-73
2022/12/26 18:39:50;;;;;;;7.77;2.50;;;;;;;;;;4958513;28;20491;-73
2022/12/26 18:42:39;;;;;;;6.90;2.57;;;;;;;;;;4971998;28;20549;-73
2022/12/26 18:45:29;;;;;;;10.10;2.40;;;;;;;;;;4971981;28;20450;-74
2022/12/26 18:48:20;;;;;;;7.90;2.30;;;;;;;;;;4962970;28;21210;-73
2022/12/26 18:51:08;;;;;;;9.30;2.90;;;;;;;;;;4964213;28;20458;-73
2022/12/26 18:54:00;;;;;;;5.13;2.30;;;;;;;;;;4966209;28;20489;-73
2022/12/26 18:56:50;;;;;;;7.27;2.37;;;;;;;;;;4963184;28;20839;-73
2022/12/26 18:59:39;;;;;;;8.13;2.30;;;;;;;;;;4964276;28;20486;-73
2022/12/26 19:02:30;;;;;;;7.50;2.17;;;;;;;;;;4966068;28;20469;-73
2022/12/26 19:05:20;;;;;;;9.83;2.53;;;;;;;;;;4965115;28;20464;-73
2022/12/26 19:08:15;;;;;;;8.37;2.60;;;;;;;;;;4971155;28;20475;-73
2022/12/26 19:11:03;;;;;;;5.87;3.13;;;;;;;;;;4966708;28;20443;-73
2022/12/26 19:13:59;;;;;;;10.30;3.03;;;;;;;;;;4971532;28;20449;-73
2022/12/26 19:16:51;;;;;;;8.90;2.93;;;;;;;;;;4969562;28;20449;-74
2022/12/26 19:19:40;;;;;;;6.43;3.03;;;;;;;;;;4960449;28;21048;-73
2022/12/26 19:22:35;;;;;;;7.43;2.63;;;;;;;;;;4968587;28;20461;-73
2022/12/26 19:25:25;;;;;;;8.47;2.67;;;;;;;;;;4970545;28;20564;-73
2022/12/26 19:28:14;;;;;;;7.80;2.90;;;;;;;;;;4962774;28;20517;-73